sensor_id;sensor_type;location;lat;lon;timestamp;pressure;altitude;pressure_sealevel;temperature;humidity
47636;BME280;33364;50.766;15.338;2023-03-12T00:00:46;94287.38;;;-4.10;72.62
47636;BME280;33364;50.766;15.338;2023-03-12T00:03:31;94302.28;;;-4.12;68.65
47636;BME280;33364;50.766;15.338;2023-03-12T00:05:57;94308.00;;;-4.25;71.61
47636;BME280;33364;50.766;15.338;2023-03-12T00:08:23;94298.03;;;-4.05;73.45
47636;BME280;33364;50.766;15.338;2023-03-12T00:10:48;94297.41;;;-4.55;70.06
47636;BME280;33364;50.766;15.338;2023-03-12T00:13:14;94304.50;;;-4.40;75.89
47636;BME280;33364;50.766;15.338;2023-03-12T00:15:40;94303.97;;;-4.28;73.74
47636;BME280;33364;50.766;15.338;2023-03-12T00:18:06;94305.19;;;-4.55;72.89
47636;BME280;33364;50.766;15.338;2023-03-12T00:20:31;94311.00;;;-4.36;74.08
47636;BME280;33364;50.766;15.338;2023-03-12T00:22:57;94306.19;;;-4.16;73.77
47636;BME280;33364;50.766;15.338;2023-03-12T00:25:23;94310.00;;;-4.04;78.44
47636;BME280;33364;50.766;15.338;2023-03-12T00:27:49;94309.31;;;-4.29;70.53
47636;BME280;33364;50.766;15.338;2023-03-12T00:30:14;94304.78;;;-4.75;70.79
47636;BME280;33364;50.766;15.338;2023-03-12T00:32:40;94308.81;;;-4.64;70.16
47636;BME280;33364;50.766;15.338;2023-03-12T00:35:07;94313.97;;;-4.56;70.88
47636;BME280;33364;50.766;15.338;2023-03-12T00:37:33;94307.53;;;-4.29;74.15
47636;BME280;33364;50.766;15.338;2023-03-12T00:39:59;94313.31;;;-4.10;74.15
47636;BME280;33364;50.766;15.338;2023-03-12T00:42:31;94314.09;;;-4.10;72.24
47636;BME280;33364;50.766;15.338;2023-03-12T00:44:56;94320.09;;;-3.78;78.24
47636;BME280;33364;50.766;15.338;2023-03-12T00:47:22;94319.50;;;-3.88;70.19
47636;BME280;33364;50.766;15.338;2023-03-12T00:49:48;94321.00;;;-3.94;70.43
47636;BME280;33364;50.766;15.338;2023-03-12T00:52:14;94324.34;;;-3.85;74.63
47636;BME280;33364;50.766;15.338;2023-03-12T00:54:40;94326.03;;;-3.92;77.42
47636;BME280;33364;50.766;15.338;2023-03-12T00:57:06;94328.47;;;-3.99;73.23
47636;BME280;33364;50.766;15.338;2023-03-12T00:59:31;94334.00;;;-3.71;75.50
47636;BME280;33364;50.766;15.338;2023-03-12T01:01:57;94326.41;;;-4.03;71.38
47636;BME280;33364;50.766;15.338;2023-03-12T01:04:23;94327.75;;;-3.84;78.41
47636;BME280;33364;50.766;15.338;2023-03-12T01:06:49;94320.72;;;-4.07;73.62
47636;BME280;33364;50.766;15.338;2023-03-12T01:09:15;94322.41;;;-4.14;76.62
47636;BME280;33364;50.766;15.338;2023-03-12T01:11:41;94329.56;;;-4.25;69.30
47636;BME280;33364;50.766;15.338;2023-03-12T01:14:08;94328.34;;;-4.45;75.41
47636;BME280;33364;50.766;15.338;2023-03-12T01:16:34;94326.75;;;-4.46;70.41
47636;BME280;33364;50.766;15.338;2023-03-12T01:19:01;94327.25;;;-4.59;71.91
47636;BME280;33364;50.766;15.338;2023-03-12T01:21:28;94328.56;;;-4.71;66.70
47636;BME280;33364;50.766;15.338;2023-03-12T01:23:54;94330.09;;;-5.10;77.57
47636;BME280;33364;50.766;15.338;2023-03-12T01:26:21;94326.38;;;-5.24;70.13
47636;BME280;33364;50.766;15.338;2023-03-12T01:28:47;94327.81;;;-4.96;73.99
47636;BME280;33364;50.766;15.338;2023-03-12T01:31:15;94330.25;;;-4.87;72.15
47636;BME280;33364;50.766;15.338;2023-03-12T01:33:41;94329.38;;;-4.79;71.50
47636;BME280;33364;50.766;15.338;2023-03-12T01:36:19;94336.09;;;-5.18;71.09
47636;BME280;33364;50.766;15.338;2023-03-12T01:38:45;94337.84;;;-5.51;68.39
47636;BME280;33364;50.766;15.338;2023-03-12T01:41:12;94334.47;;;-5.51;79.66
47636;BME280;33364;50.766;15.338;2023-03-12T01:43:38;94339.78;;;-5.04;77.96
47636;BME280;33364;50.766;15.338;2023-03-12T01:49:25;94338.19;;;-4.96;73.15
47636;BME280;33364;50.766;15.338;2023-03-12T01:51:58;94341.28;;;-5.26;70.67
47636;BME280;33364;50.766;15.338;2023-03-12T01:54:30;94338.19;;;-5.05;72.58
47636;BME280;33364;50.766;15.338;2023-03-12T01:56:59;94339.00;;;-4.32;84.81
47636;BME280;33364;50.766;15.338;2023-03-12T01:59:33;94346.06;;;-4.17;81.24
47636;BME280;33364;50.766;15.338;2023-03-12T02:02:02;94345.81;;;-4.31;70.17
47636;BME280;33364;50.766;15.338;2023-03-12T02:04:30;94347.00;;;-4.50;73.41
47636;BME280;33364;50.766;15.338;2023-03-12T02:07:03;94349.06;;;-4.37;72.21
47636;BME280;33364;50.766;15.338;2023-03-12T02:09:31;94337.16;;;-4.71;67.96
47636;BME280;33364;50.766;15.338;2023-03-12T02:11:57;94346.34;;;-4.52;81.56
47636;BME280;33364;50.766;15.338;2023-03-12T02:14:23;94348.06;;;-4.28;73.63
47636;BME280;33364;50.766;15.338;2023-03-12T02:16:50;94339.72;;;-4.63;69.38
47636;BME280;33364;50.766;15.338;2023-03-12T02:19:32;94352.97;;;-4.41;72.16
47636;BME280;33364;50.766;15.338;2023-03-12T02:22:01;94358.28;;;-4.26;75.71
47636;BME280;33364;50.766;15.338;2023-03-12T02:24:45;94351.41;;;-4.11;71.59
47636;BME280;33364;50.766;15.338;2023-03-12T02:27:13;94354.78;;;-4.02;71.20
47636;BME280;33364;50.766;15.338;2023-03-12T02:29:43;94361.88;;;-4.35;70.05
47636;BME280;33364;50.766;15.338;2023-03-12T02:32:14;94369.16;;;-4.31;72.87
47636;BME280;33364;50.766;15.338;2023-03-12T02:34:42;94362.66;;;-3.87;75.85
47636;BME280;33364;50.766;15.338;2023-03-12T02:37:08;94362.06;;;-4.53;68.44
47636;BME280;33364;50.766;15.338;2023-03-12T02:39:33;94357.91;;;-4.79;77.48
47636;BME280;33364;50.766;15.338;2023-03-12T02:42:00;94355.31;;;-5.61;68.39
47636;BME280;33364;50.766;15.338;2023-03-12T02:44:29;94359.72;;;-5.45;70.64
47636;BME280;33364;50.766;15.338;2023-03-12T02:46:57;94358.63;;;-6.10;65.86
47636;BME280;33364;50.766;15.338;2023-03-12T02:49:26;94363.19;;;-6.73;69.39
47636;BME280;33364;50.766;15.338;2023-03-12T02:51:53;94370.66;;;-6.35;72.62
47636;BME280;33364;50.766;15.338;2023-03-12T02:54:20;94378.84;;;-6.05;77.39
47636;BME280;33364;50.766;15.338;2023-03-12T02:56:47;94370.16;;;-5.96;74.30
47636;BME280;33364;50.766;15.338;2023-03-12T02:59:13;94386.84;;;-5.66;76.19
47636;BME280;33364;50.766;15.338;2023-03-12T03:01:40;94381.03;;;-5.60;71.81
47636;BME280;33364;50.766;15.338;2023-03-12T03:04:07;94383.94;;;-5.71;71.30
47636;BME280;33364;50.766;15.338;2023-03-12T03:06:35;94383.81;;;-5.45;69.48
47636;BME280;33364;50.766;15.338;2023-03-12T03:09:02;94387.25;;;-5.36;72.58
47636;BME280;33364;50.766;15.338;2023-03-12T03:11:28;94388.84;;;-5.27;77.75
47636;BME280;33364;50.766;15.338;2023-03-12T03:13:54;94385.28;;;-4.85;76.36
47636;BME280;33364;50.766;15.338;2023-03-12T03:16:21;94391.59;;;-4.87;78.55
47636;BME280;33364;50.766;15.338;2023-03-12T03:18:47;94391.09;;;-4.66;74.02
47636;BME280;33364;50.766;15.338;2023-03-12T03:21:13;94402.28;;;-4.57;72.99
47636;BME280;33364;50.766;15.338;2023-03-12T03:23:42;94396.13;;;-4.73;67.92
47636;BME280;33364;50.766;15.338;2023-03-12T03:26:08;94404.53;;;-4.63;75.85
47636;BME280;33364;50.766;15.338;2023-03-12T03:28:34;94403.00;;;-4.24;76.45
47636;BME280;33364;50.766;15.338;2023-03-12T03:31:00;94396.00;;;-4.15;79.99
47636;BME280;33364;50.766;15.338;2023-03-12T03:33:31;94400.38;;;-4.16;72.97
47636;BME280;33364;50.766;15.338;2023-03-12T03:35:59;94404.81;;;-4.25;72.06
47636;BME280;33364;50.766;15.338;2023-03-12T03:38:26;94406.13;;;-4.45;69.50
47636;BME280;33364;50.766;15.338;2023-03-12T03:40:53;94405.06;;;-4.92;69.15
47636;BME280;33364;50.766;15.338;2023-03-12T03:43:19;94410.56;;;-5.11;69.49
47636;BME280;33364;50.766;15.338;2023-03-12T03:45:45;94419.59;;;-4.66;80.36
47636;BME280;33364;50.766;15.338;2023-03-12T03:48:11;94414.09;;;-4.55;77.83
47636;BME280;33364;50.766;15.338;2023-03-12T03:50:38;94420.22;;;-4.31;79.95
47636;BME280;33364;50.766;15.338;2023-03-12T03:53:08;94424.25;;;-4.37;70.03
47636;BME280;33364;50.766;15.338;2023-03-12T03:55:38;94428.50;;;-4.44;77.31
47636;BME280;33364;50.766;15.338;2023-03-12T03:58:04;94430.78;;;-4.49;74.22
47636;BME280;33364;50.766;15.338;2023-03-12T04:00:32;94428.22;;;-4.57;67.87
47636;BME280;33364;50.766;15.338;2023-03-12T04:02:58;94432.03;;;-4.37;70.35
47636;BME280;33364;50.766;15.338;2023-03-12T04:05:25;94437.28;;;-4.86;69.76
47636;BME280;33364;50.766;15.338;2023-03-12T04:07:51;94431.44;;;-4.72;70.54
47636;BME280;33364;50.766;15.338;2023-03-12T04:10:20;94431.13;;;-4.61;70.69
47636;BME280;33364;50.766;15.338;2023-03-12T04:12:46;94440.03;;;-4.71;71.95
47636;BME280;33364;50.766;15.338;2023-03-12T04:15:11;94441.19;;;-4.82;70.61
47636;BME280;33364;50.766;15.338;2023-03-12T04:17:37;94436.94;;;-4.67;79.79
47636;BME280;33364;50.766;15.338;2023-03-12T04:20:03;94436.31;;;-4.69;71.43
47636;BME280;33364;50.766;15.338;2023-03-12T04:22:32;94435.97;;;-4.49;73.50
47636;BME280;33364;50.766;15.338;2023-03-12T04:24:58;94437.69;;;-4.25;72.19
47636;BME280;33364;50.766;15.338;2023-03-12T04:27:23;94439.53;;;-4.50;69.39
47636;BME280;33364;50.766;15.338;2023-03-12T04:29:49;94440.34;;;-4.83;68.89
47636;BME280;33364;50.766;15.338;2023-03-12T04:32:15;94437.75;;;-4.66;70.24
47636;BME280;33364;50.766;15.338;2023-03-12T04:34:41;94444.06;;;-4.44;72.39
47636;BME280;33364;50.766;15.338;2023-03-12T04:37:07;94445.66;;;-4.18;81.32
47636;BME280;33364;50.766;15.338;2023-03-12T04:39:33;94441.53;;;-4.04;74.22
47636;BME280;33364;50.766;15.338;2023-03-12T04:41:59;94449.75;;;-4.57;68.99
47636;BME280;33364;50.766;15.338;2023-03-12T04:44:25;94449.88;;;-4.34;71.16
47636;BME280;33364;50.766;15.338;2023-03-12T04:46:50;94449.06;;;-4.34;70.55
47636;BME280;33364;50.766;15.338;2023-03-12T04:49:16;94449.91;;;-4.58;70.19
47636;BME280;33364;50.766;15.338;2023-03-12T04:51:42;94458.50;;;-4.83;72.31
47636;BME280;33364;50.766;15.338;2023-03-12T04:54:08;94464.28;;;-5.13;66.49
47636;BME280;33364;50.766;15.338;2023-03-12T04:56:34;94459.78;;;-5.11;70.30
47636;BME280;33364;50.766;15.338;2023-03-12T04:58:59;94459.66;;;-4.77;71.44
47636;BME280;33364;50.766;15.338;2023-03-12T05:01:31;94462.56;;;-4.64;70.01
47636;BME280;33364;50.766;15.338;2023-03-12T05:03:58;94467.56;;;-4.87;68.40
47636;BME280;33364;50.766;15.338;2023-03-12T05:06:24;94463.84;;;-4.92;67.67
47636;BME280;33364;50.766;15.338;2023-03-12T05:08:50;94472.59;;;-4.69;69.30
47636;BME280;33364;50.766;15.338;2023-03-12T05:11:17;94465.16;;;-4.64;71.44
47636;BME280;33364;50.766;15.338;2023-03-12T05:13:44;94468.84;;;-4.42;71.34
47636;BME280;33364;50.766;15.338;2023-03-12T05:16:11;94475.16;;;-4.19;72.32
47636;BME280;33364;50.766;15.338;2023-03-12T05:18:38;94480.84;;;-4.49;67.76
47636;BME280;33364;50.766;15.338;2023-03-12T05:21:10;94480.69;;;-4.55;69.63
47636;BME280;33364;50.766;15.338;2023-03-12T05:23:37;94490.41;;;-4.25;70.10
47636;BME280;33364;50.766;15.338;2023-03-12T05:26:05;94488.16;;;-4.44;68.50
47636;BME280;33364;50.766;15.338;2023-03-12T05:28:32;94486.38;;;-4.60;73.75
47636;BME280;33364;50.766;15.338;2023-03-12T05:30:59;94492.88;;;-4.56;70.16
47636;BME280;33364;50.766;15.338;2023-03-12T05:33:26;94491.72;;;-4.70;70.56
47636;BME280;33364;50.766;15.338;2023-03-12T05:35:52;94495.28;;;-4.54;71.38
47636;BME280;33364;50.766;15.338;2023-03-12T05:38:19;94499.47;;;-4.29;72.06
47636;BME280;33364;50.766;15.338;2023-03-12T05:40:56;94492.66;;;-4.13;73.22
47636;BME280;33364;50.766;15.338;2023-03-12T05:43:24;94499.59;;;-4.06;75.77
47636;BME280;33364;50.766;15.338;2023-03-12T05:45:51;94497.19;;;-4.24;69.24
47636;BME280;33364;50.766;15.338;2023-03-12T05:48:18;94495.44;;;-4.31;71.99
47636;BME280;33364;50.766;15.338;2023-03-12T05:50:43;94498.94;;;-3.99;76.26
47636;BME280;33364;50.766;15.338;2023-03-12T05:53:10;94499.53;;;-3.81;72.11
47636;BME280;33364;50.766;15.338;2023-03-12T05:55:37;94504.09;;;-3.83;68.55
47636;BME280;33364;50.766;15.338;2023-03-12T05:58:05;94498.38;;;-3.70;76.88
47636;BME280;33364;50.766;15.338;2023-03-12T06:00:33;94500.00;;;-3.69;70.10
47636;BME280;33364;50.766;15.338;2023-03-12T06:03:04;94502.03;;;-3.48;69.38
47636;BME280;33364;50.766;15.338;2023-03-12T06:05:31;94501.31;;;-3.81;67.36
47636;BME280;33364;50.766;15.338;2023-03-12T06:07:58;94514.88;;;-3.46;74.66
47636;BME280;33364;50.766;15.338;2023-03-12T06:10:24;94508.75;;;-3.30;69.67
47636;BME280;33364;50.766;15.338;2023-03-12T06:12:50;94513.88;;;-3.14;70.80
47636;BME280;33364;50.766;15.338;2023-03-12T06:15:15;94520.25;;;-3.17;69.22
47636;BME280;33364;50.766;15.338;2023-03-12T06:17:41;94514.28;;;-2.94;67.82
47636;BME280;33364;50.766;15.338;2023-03-12T06:20:07;94523.28;;;-2.59;73.97
47636;BME280;33364;50.766;15.338;2023-03-12T06:22:34;94528.56;;;-2.67;65.75
47636;BME280;33364;50.766;15.338;2023-03-12T06:25:00;94519.44;;;-2.63;66.52
47636;BME280;33364;50.766;15.338;2023-03-12T06:27:26;94517.97;;;-2.88;67.53
47636;BME280;33364;50.766;15.338;2023-03-12T06:29:51;94521.09;;;-2.70;70.08
47636;BME280;33364;50.766;15.338;2023-03-12T06:32:17;94524.53;;;-2.69;71.00
47636;BME280;33364;50.766;15.338;2023-03-12T06:34:43;94526.47;;;-2.71;70.26
47636;BME280;33364;50.766;15.338;2023-03-12T06:37:10;94519.28;;;-2.61;69.67
47636;BME280;33364;50.766;15.338;2023-03-12T06:39:36;94522.97;;;-2.55;69.55
47636;BME280;33364;50.766;15.338;2023-03-12T06:42:02;94524.81;;;-2.64;66.59
47636;BME280;33364;50.766;15.338;2023-03-12T06:44:28;94523.28;;;-2.35;76.19
47636;BME280;33364;50.766;15.338;2023-03-12T06:46:54;94520.88;;;-1.99;71.02
47636;BME280;33364;50.766;15.338;2023-03-12T06:49:20;94522.78;;;-1.78;70.62
47636;BME280;33364;50.766;15.338;2023-03-12T06:51:46;94526.72;;;-1.52;71.06
47636;BME280;33364;50.766;15.338;2023-03-12T06:54:11;94526.38;;;-1.79;66.30
47636;BME280;33364;50.766;15.338;2023-03-12T06:56:37;94532.09;;;-1.83;63.99
47636;BME280;33364;50.766;15.338;2023-03-12T06:59:03;94531.13;;;-1.97;64.13
47636;BME280;33364;50.766;15.338;2023-03-12T07:01:29;94531.91;;;-1.97;70.29
47636;BME280;33364;50.766;15.338;2023-03-12T07:03:55;94528.88;;;-1.86;66.65
47636;BME280;33364;50.766;15.338;2023-03-12T07:06:22;94533.22;;;-1.63;66.67
47636;BME280;33364;50.766;15.338;2023-03-12T07:08:48;94530.69;;;-1.56;65.57
47636;BME280;33364;50.766;15.338;2023-03-12T07:11:15;94527.38;;;-1.35;68.25
47636;BME280;33364;50.766;15.338;2023-03-12T07:13:42;94525.50;;;-1.41;64.75
47636;BME280;33364;50.766;15.338;2023-03-12T07:16:09;94521.34;;;-1.21;65.39
47636;BME280;33364;50.766;15.338;2023-03-12T07:18:35;94524.47;;;-1.11;66.69
47636;BME280;33364;50.766;15.338;2023-03-12T07:21:01;94525.16;;;-1.02;63.84
47636;BME280;33364;50.766;15.338;2023-03-12T07:23:27;94526.81;;;-1.16;65.88
47636;BME280;33364;50.766;15.338;2023-03-12T07:25:53;94529.66;;;-0.96;70.63
47636;BME280;33364;50.766;15.338;2023-03-12T07:28:20;94532.88;;;-0.94;66.00
47636;BME280;33364;50.766;15.338;2023-03-12T07:30:46;94523.25;;;-0.78;67.28
47636;BME280;33364;50.766;15.338;2023-03-12T07:33:20;94531.91;;;-0.93;66.41
47636;BME280;33364;50.766;15.338;2023-03-12T07:35:46;94524.44;;;-0.96;67.31
47636;BME280;33364;50.766;15.338;2023-03-12T07:38:12;94521.75;;;-0.66;68.89
47636;BME280;33364;50.766;15.338;2023-03-12T07:40:39;94524.47;;;-0.09;73.05
47636;BME280;33364;50.766;15.338;2023-03-12T07:43:05;94523.91;;;-0.26;65.27
47636;BME280;33364;50.766;15.338;2023-03-12T07:45:38;94529.00;;;-0.18;65.08
47636;BME280;33364;50.766;15.338;2023-03-12T07:48:04;94530.81;;;-0.19;65.16
47636;BME280;33364;50.766;15.338;2023-03-12T07:50:31;94526.06;;;-0.08;66.28
47636;BME280;33364;50.766;15.338;2023-03-12T07:52:57;94531.72;;;0.17;65.86
47636;BME280;33364;50.766;15.338;2023-03-12T07:55:23;94525.78;;;0.30;63.69
47636;BME280;33364;50.766;15.338;2023-03-12T07:57:49;94531.09;;;0.43;63.58
47636;BME280;33364;50.766;15.338;2023-03-12T08:00:15;94531.06;;;0.78;66.82
47636;BME280;33364;50.766;15.338;2023-03-12T08:02:41;94532.19;;;1.04;61.42
47636;BME280;33364;50.766;15.338;2023-03-12T08:05:08;94537.63;;;1.02;60.29
47636;BME280;33364;50.766;15.338;2023-03-12T08:07:33;94540.03;;;1.59;61.64
47636;BME280;33364;50.766;15.338;2023-03-12T08:10:01;94537.84;;;2.09;64.22
47636;BME280;33364;50.766;15.338;2023-03-12T08:12:30;94534.22;;;2.44;56.58
47636;BME280;33364;50.766;15.338;2023-03-12T08:14:57;94536.41;;;2.47;57.71
47636;BME280;33364;50.766;15.338;2023-03-12T08:17:22;94535.22;;;2.49;57.65
47636;BME280;33364;50.766;15.338;2023-03-12T08:19:48;94530.53;;;2.58;58.99
47636;BME280;33364;50.766;15.338;2023-03-12T08:22:14;94534.75;;;2.72;59.92
47636;BME280;33364;50.766;15.338;2023-03-12T08:24:40;94528.81;;;3.04;57.42
47636;BME280;33364;50.766;15.338;2023-03-12T08:27:06;94536.00;;;3.67;54.96
47636;BME280;33364;50.766;15.338;2023-03-12T08:29:32;94535.31;;;3.78;56.17
47636;BME280;33364;50.766;15.338;2023-03-12T08:31:58;94536.50;;;3.82;51.36
47636;BME280;33364;50.766;15.338;2023-03-12T08:34:24;94532.19;;;3.95;51.60
47636;BME280;33364;50.766;15.338;2023-03-12T08:36:50;94528.72;;;4.01;51.60
47636;BME280;33364;50.766;15.338;2023-03-12T08:39:16;94527.56;;;4.40;53.48
47636;BME280;33364;50.766;15.338;2023-03-12T08:41:42;94537.28;;;4.65;49.83
47636;BME280;33364;50.766;15.338;2023-03-12T08:44:08;94534.22;;;5.05;52.07
47636;BME280;33364;50.766;15.338;2023-03-12T08:46:33;94535.03;;;5.06;50.54
47636;BME280;33364;50.766;15.338;2023-03-12T08:48:59;94544.41;;;5.50;47.31
47636;BME280;33364;50.766;15.338;2023-03-12T08:51:25;94541.25;;;5.60;50.08
47636;BME280;33364;50.766;15.338;2023-03-12T08:53:51;94544.25;;;5.94;50.14
47636;BME280;33364;50.766;15.338;2023-03-12T08:56:17;94538.84;;;5.89;46.02
47636;BME280;33364;50.766;15.338;2023-03-12T08:58:42;94538.13;;;6.12;44.75
47636;BME280;33364;50.766;15.338;2023-03-12T09:01:10;94539.09;;;6.41;49.61
47636;BME280;33364;50.766;15.338;2023-03-12T09:03:37;94535.78;;;6.34;44.17
47636;BME280;33364;50.766;15.338;2023-03-12T09:06:07;94547.81;;;6.54;50.67
47636;BME280;33364;50.766;15.338;2023-03-12T09:08:39;94545.31;;;6.71;48.96
47636;BME280;33364;50.766;15.338;2023-03-12T09:11:05;94550.94;;;6.63;45.78
47636;BME280;33364;50.766;15.338;2023-03-12T09:13:31;94553.28;;;6.29;45.10
47636;BME280;33364;50.766;15.338;2023-03-12T09:16:03;94542.59;;;6.12;52.69
47636;BME280;33364;50.766;15.338;2023-03-12T09:18:30;94539.59;;;5.78;47.54
47636;BME280;33364;50.766;15.338;2023-03-12T09:20:56;94542.41;;;5.95;49.44
47636;BME280;33364;50.766;15.338;2023-03-12T09:23:23;94543.38;;;5.82;47.41
47636;BME280;33364;50.766;15.338;2023-03-12T09:25:49;94549.50;;;5.33;47.32
47636;BME280;33364;50.766;15.338;2023-03-12T09:28:15;94556.38;;;5.53;52.21
47636;BME280;33364;50.766;15.338;2023-03-12T09:30:41;94547.69;;;5.64;48.83
47636;BME280;33364;50.766;15.338;2023-03-12T09:33:11;94539.47;;;5.73;46.04
47636;BME280;33364;50.766;15.338;2023-03-12T09:35:42;94538.31;;;5.68;44.19
47636;BME280;33364;50.766;15.338;2023-03-12T09:38:13;94539.84;;;5.27;47.75
47636;BME280;33364;50.766;15.338;2023-03-12T09:40:45;94540.34;;;5.18;43.63
47636;BME280;33364;50.766;15.338;2023-03-12T09:43:35;94535.06;;;5.55;44.36
47636;BME280;33364;50.766;15.338;2023-03-12T09:46:03;94532.53;;;5.90;46.28
47636;BME280;33364;50.766;15.338;2023-03-12T09:48:34;94532.31;;;6.22;44.07
47636;BME280;33364;50.766;15.338;2023-03-12T09:51:19;94539.78;;;6.37;46.33
47636;BME280;33364;50.766;15.338;2023-03-12T09:53:50;94531.56;;;6.03;43.99
47636;BME280;33364;50.766;15.338;2023-03-12T09:56:20;94524.69;;;5.72;45.84
47636;BME280;33364;50.766;15.338;2023-03-12T09:58:49;94530.84;;;5.96;44.46
47636;BME280;33364;50.766;15.338;2023-03-12T10:01:36;94531.53;;;6.69;47.34
47636;BME280;33364;50.766;15.338;2023-03-12T10:04:17;94518.78;;;6.77;45.93
47636;BME280;33364;50.766;15.338;2023-03-12T10:07:06;94532.56;;;6.56;42.52
47636;BME280;33364;50.766;15.338;2023-03-12T10:12:23;94536.59;;;5.62;46.75
47636;BME280;33364;50.766;15.338;2023-03-12T10:15:21;94540.72;;;5.40;44.93
47636;BME280;33364;50.766;15.338;2023-03-12T10:21:03;94529.53;;;5.07;46.78
47636;BME280;33364;50.766;15.338;2023-03-12T10:26:17;94524.84;;;4.29;52.09
47636;BME280;33364;50.766;15.338;2023-03-12T10:28:46;94524.03;;;4.72;48.65
47636;BME280;33364;50.766;15.338;2023-03-12T10:31:31;94528.91;;;5.12;48.87
47636;BME280;33364;50.766;15.338;2023-03-12T10:34:01;94533.66;;;5.22;49.90
47636;BME280;33364;50.766;15.338;2023-03-12T10:36:40;94527.06;;;4.94;45.96
47636;BME280;33364;50.766;15.338;2023-03-12T10:39:17;94535.63;;;4.89;47.89
47636;BME280;33364;50.766;15.338;2023-03-12T10:41:46;94536.81;;;5.42;47.64
47636;BME280;33364;50.766;15.338;2023-03-12T10:44:22;94537.03;;;5.59;47.15
47636;BME280;33364;50.766;15.338;2023-03-12T10:49:49;94533.84;;;5.39;49.75
47636;BME280;33364;50.766;15.338;2023-03-12T10:52:22;94530.91;;;5.77;45.83
47636;BME280;33364;50.766;15.338;2023-03-12T10:54:49;94532.28;;;5.49;43.37
47636;BME280;33364;50.766;15.338;2023-03-12T10:57:38;94531.69;;;5.78;51.68
47636;BME280;33364;50.766;15.338;2023-03-12T11:00:07;94536.91;;;6.38;46.75
47636;BME280;33364;50.766;15.338;2023-03-12T11:02:40;94528.88;;;6.80;44.66
47636;BME280;33364;50.766;15.338;2023-03-12T11:05:25;94531.69;;;7.26;46.20
47636;BME280;33364;50.766;15.338;2023-03-12T11:07:53;94528.03;;;7.15;39.64
47636;BME280;33364;50.766;15.338;2023-03-12T11:10:22;94527.41;;;7.37;43.02
47636;BME280;33364;50.766;15.338;2023-03-12T11:12:58;94530.03;;;6.49;40.22
47636;BME280;33364;50.766;15.338;2023-03-12T11:17:50;94518.06;;;7.06;38.81
47636;BME280;33364;50.766;15.338;2023-03-12T11:20:25;94505.03;;;7.57;40.40
47636;BME280;33364;50.766;15.338;2023-03-12T11:22:52;94511.63;;;8.00;40.32
47636;BME280;33364;50.766;15.338;2023-03-12T11:25:27;94507.41;;;8.33;36.24
47636;BME280;33364;50.766;15.338;2023-03-12T11:27:55;94509.31;;;8.20;34.12
47636;BME280;33364;50.766;15.338;2023-03-12T11:30:34;94512.84;;;8.09;38.18
47636;BME280;33364;50.766;15.338;2023-03-12T11:33:01;94508.81;;;7.32;38.21
47636;BME280;33364;50.766;15.338;2023-03-12T11:38:39;94506.88;;;7.56;42.50
47636;BME280;33364;50.766;15.338;2023-03-12T11:52:26;94485.16;;;6.61;38.31
47636;BME280;33364;50.766;15.338;2023-03-12T11:55:10;94483.13;;;6.39;45.31
47636;BME280;33364;50.766;15.338;2023-03-12T12:00:35;94480.47;;;6.39;35.78
47636;BME280;33364;50.766;15.338;2023-03-12T12:09:17;94465.91;;;6.25;37.98
47636;BME280;33364;50.766;15.338;2023-03-12T12:25:24;94459.13;;;6.29;41.07
47636;BME280;33364;50.766;15.338;2023-03-12T12:28:13;94458.38;;;6.81;46.88
47636;BME280;33364;50.766;15.338;2023-03-12T12:36:28;94459.34;;;6.16;38.24
47636;BME280;33364;50.766;15.338;2023-03-12T12:39:00;94453.28;;;6.51;40.66
47636;BME280;33364;50.766;15.338;2023-03-12T12:41:37;94449.94;;;6.43;42.00
47636;BME280;33364;50.766;15.338;2023-03-12T12:44:25;94459.44;;;5.97;39.89
47636;BME280;33364;50.766;15.338;2023-03-12T12:46:58;94458.91;;;6.42;41.42
47636;BME280;33364;50.766;15.338;2023-03-12T12:49:36;94447.88;;;7.10;41.37
47636;BME280;33364;50.766;15.338;2023-03-12T12:52:09;94441.22;;;7.07;39.84
47636;BME280;33364;50.766;15.338;2023-03-12T12:57:30;94445.50;;;5.90;41.44
47636;BME280;33364;50.766;15.338;2023-03-12T13:03:03;94438.50;;;4.81;42.45
47636;BME280;33364;50.766;15.338;2023-03-12T13:08:02;94428.91;;;5.05;41.17
47636;BME280;33364;50.766;15.338;2023-03-12T13:12:57;94416.91;;;5.51;44.68
47636;BME280;33364;50.766;15.338;2023-03-12T13:18:02;94420.63;;;5.62;45.24
47636;BME280;33364;50.766;15.338;2023-03-12T13:20:58;94417.66;;;4.98;42.47
47636;BME280;33364;50.766;15.338;2023-03-12T13:26:31;94416.06;;;4.23;45.40
47636;BME280;33364;50.766;15.338;2023-03-12T13:29:20;94431.31;;;4.14;45.28
47636;BME280;33364;50.766;15.338;2023-03-12T13:31:49;94415.72;;;3.69;50.13
47636;BME280;33364;50.766;15.338;2023-03-12T13:36:56;94427.66;;;3.40;47.89
47636;BME280;33364;50.766;15.338;2023-03-12T13:39:36;94420.28;;;4.06;48.75
47636;BME280;33364;50.766;15.338;2023-03-12T13:44:50;94419.25;;;4.07;49.26
47636;BME280;33364;50.766;15.338;2023-03-12T13:47:28;94419.31;;;4.00;50.09
47636;BME280;33364;50.766;15.338;2023-03-12T13:50:04;94414.06;;;3.49;49.89
47636;BME280;33364;50.766;15.338;2023-03-12T13:57:44;94418.81;;;3.34;50.72
47636;BME280;33364;50.766;15.338;2023-03-12T14:00:26;94405.00;;;3.45;50.39
47636;BME280;33364;50.766;15.338;2023-03-12T14:05:34;94392.72;;;3.64;48.88
47636;BME280;33364;50.766;15.338;2023-03-12T14:08:24;94402.13;;;3.54;51.29
47636;BME280;33364;50.766;15.338;2023-03-12T14:16:22;94405.06;;;3.39;56.20
47636;BME280;33364;50.766;15.338;2023-03-12T14:18:52;94396.59;;;3.30;49.78
47636;BME280;33364;50.766;15.338;2023-03-12T14:21:20;94390.81;;;3.53;50.57
47636;BME280;33364;50.766;15.338;2023-03-12T14:23:55;94394.50;;;3.13;48.69
47636;BME280;33364;50.766;15.338;2023-03-12T14:26:26;94381.44;;;3.00;52.08
47636;BME280;33364;50.766;15.338;2023-03-12T14:31:47;94385.22;;;3.43;54.55
47636;BME280;33364;50.766;15.338;2023-03-12T14:34:20;94398.72;;;3.46;50.12
47636;BME280;33364;50.766;15.338;2023-03-12T14:36:54;94388.94;;;3.60;54.32
47636;BME280;33364;50.766;15.338;2023-03-12T14:39:42;94390.16;;;3.58;51.38
47636;BME280;33364;50.766;15.338;2023-03-12T14:42:21;94391.44;;;3.48;53.40